createdAt,value
2019-01-02T00:01:41.472Z,3.07
2019-01-02T00:04:11.138Z,3.10
2019-01-02T00:06:40.501Z,2.43
2019-01-02T00:09:10.425Z,3.50
2019-01-02T00:11:39.932Z,3.43
2019-01-02T00:14:09.420Z,2.77
2019-01-02T00:16:38.934Z,2.27
2019-01-02T00:19:08.670Z,3.03
2019-01-02T00:21:38.653Z,2.70
2019-01-02T00:24:08.060Z,2.27
2019-01-02T00:26:37.871Z,2.73
2019-01-02T00:29:07.261Z,3.30
2019-01-02T00:31:36.671Z,3.57
2019-01-02T00:34:06.272Z,3.77
2019-01-02T00:36:35.666Z,5.03
2019-01-02T00:39:09.078Z,3.50
2019-01-02T00:41:38.558Z,2.40
2019-01-02T00:44:08.383Z,3.50
2019-01-02T00:46:37.782Z,2.93
2019-01-02T00:49:07.802Z,2.97
2019-01-02T00:51:37.100Z,2.37
2019-01-02T00:54:07.013Z,3.33
2019-01-02T00:56:36.412Z,3.07
2019-01-02T00:59:06.212Z,2.40
2019-01-02T01:01:35.485Z,3.77
2019-01-02T01:04:05.319Z,3.27
2019-01-02T01:06:34.840Z,2.10
2019-01-02T01:09:05.960Z,3.00
2019-01-02T01:11:35.474Z,3.47
2019-01-02T01:14:05.200Z,3.27
2019-01-02T01:16:35.102Z,3.03
2019-01-02T01:19:05.107Z,2.13
2019-01-02T01:21:34.640Z,4.43
2019-01-02T01:24:04.525Z,2.50
2019-01-02T01:26:34.048Z,3.40
2019-01-02T01:29:03.643Z,3.43
2019-01-02T01:31:33.452Z,3.20
2019-01-02T01:34:02.683Z,3.10
2019-01-02T01:36:32.153Z,2.47
2019-01-02T01:39:01.579Z,3.30
2019-01-02T01:41:31.061Z,3.77
2019-01-02T01:44:00.755Z,2.90
2019-01-02T01:46:30.110Z,4.13
2019-01-02T01:48:59.521Z,4.67
2019-01-02T01:51:29.574Z,5.67
2019-01-02T01:53:58.974Z,5.90
2019-01-02T01:56:28.788Z,5.87
2019-01-02T01:58:58.290Z,3.60
2019-01-02T02:01:27.782Z,5.17
2019-01-02T02:03:57.705Z,4.07
2019-01-02T02:06:27.050Z,3.60
2019-01-02T02:08:56.505Z,4.20
2019-01-02T02:11:26.042Z,2.83
2019-01-02T02:13:55.250Z,3.97
2019-01-02T02:16:25.160Z,3.10
2019-01-02T02:18:54.636Z,3.57
2019-01-02T02:21:24.124Z,4.13
2019-01-02T02:23:54.050Z,4.80
2019-01-02T02:26:23.530Z,3.73
2019-01-02T02:28:53.052Z,4.17
2019-01-02T02:31:22.661Z,3.40
2019-01-02T02:33:52.410Z,4.07
2019-01-02T02:36:22.482Z,4.70
2019-01-02T02:38:52.185Z,2.73
2019-01-02T02:41:22.204Z,3.70
2019-01-02T02:43:52.110Z,5.00
2019-01-02T02:46:21.719Z,3.90
2019-01-02T02:48:51.438Z,3.83
2019-01-02T02:51:21.142Z,4.27
2019-01-02T02:53:50.950Z,4.03
2019-01-02T02:56:20.860Z,4.13
2019-01-02T02:58:50.572Z,3.83
2019-01-02T03:01:20.480Z,3.87
2019-01-02T03:03:51.219Z,3.10
2019-01-02T03:06:21.258Z,3.53
2019-01-02T03:08:52.370Z,2.80
2019-01-02T03:11:21.782Z,3.50
2019-01-02T03:13:51.529Z,3.03
2019-01-02T03:16:21.648Z,3.93
2019-01-02T03:18:51.439Z,3.57
2019-01-02T03:21:21.400Z,3.90
2019-01-02T03:23:51.239Z,2.93
2019-01-02T03:26:20.630Z,3.80
2019-01-02T03:28:50.133Z,4.33
2019-01-02T03:31:19.852Z,4.53
2019-01-02T03:33:49.664Z,3.37
2019-01-02T03:36:19.160Z,3.73
2019-01-02T03:38:48.479Z,3.70
2019-01-02T03:41:17.854Z,4.20
2019-01-02T03:43:47.473Z,2.53
2019-01-02T03:46:16.763Z,3.00
2019-01-02T03:48:46.363Z,3.07
2019-01-02T03:51:15.981Z,3.37
2019-01-02T03:53:45.469Z,4.07
2019-01-02T03:56:14.880Z,3.70
2019-01-02T03:58:44.275Z,4.10
2019-01-02T04:01:13.893Z,3.57
2019-01-02T04:03:43.315Z,3.33
2019-01-02T04:06:13.200Z,3.00
2019-01-02T04:08:42.912Z,3.73
2019-01-02T04:11:12.354Z,3.20
2019-01-02T04:13:41.619Z,3.37
2019-01-02T04:16:10.922Z,3.47
2019-01-02T04:18:40.322Z,3.23
2019-01-02T04:21:09.662Z,2.70
2019-01-02T04:23:38.949Z,3.07
2019-01-02T04:26:08.415Z,2.97
2019-01-02T04:28:37.812Z,2.80
2019-01-02T04:31:07.311Z,2.73
2019-01-02T04:33:36.771Z,2.53
2019-01-02T04:36:06.230Z,2.77
2019-01-02T04:38:35.623Z,3.23
2019-01-02T04:41:05.050Z,3.97
2019-01-02T04:43:34.630Z,3.13
2019-01-02T04:46:04.132Z,3.40
2019-01-02T04:48:33.561Z,2.90
2019-01-02T04:51:03.040Z,3.40
2019-01-02T04:53:32.430Z,3.17
2019-01-02T04:56:01.920Z,2.77
2019-01-02T04:58:31.339Z,2.90
2019-01-02T05:01:00.843Z,2.77
2019-01-02T05:03:30.553Z,3.40
2019-01-02T05:06:00.050Z,3.77
2019-01-02T05:08:29.551Z,3.40
2019-01-02T05:10:58.952Z,3.03
2019-01-02T05:13:28.462Z,2.80
2019-01-02T05:15:58.070Z,3.00
2019-01-02T05:18:27.573Z,3.57
2019-01-02T05:20:57.084Z,2.97
2019-01-02T05:23:26.581Z,2.60
2019-01-02T05:25:56.083Z,2.83
2019-01-02T05:28:25.340Z,2.77
2019-01-02T05:30:54.882Z,2.90
2019-01-02T05:33:24.593Z,4.80
2019-01-02T05:35:53.947Z,4.17
2019-01-02T05:38:23.500Z,4.37
2019-01-02T05:40:53.096Z,5.27
2019-01-02T05:43:22.605Z,3.20
2019-01-02T05:45:52.044Z,3.27
2019-01-02T05:48:21.390Z,3.60
2019-01-02T05:50:50.810Z,3.00
2019-01-02T05:53:20.199Z,2.80
2019-01-02T05:55:49.830Z,3.50
2019-01-02T05:58:19.422Z,3.63
2019-01-02T06:00:49.018Z,2.13
2019-01-02T06:03:18.360Z,3.83
2019-01-02T06:05:47.811Z,3.27
2019-01-02T06:08:17.440Z,4.95
2019-01-02T06:10:48.782Z,3.57
2019-01-02T06:13:18.191Z,3.50
2019-01-02T06:15:47.710Z,4.17
2019-01-02T06:18:48.103Z,3.77
2019-01-02T06:21:18.511Z,2.93
2019-01-02T06:23:49.022Z,3.60
2019-01-02T06:26:19.565Z,4.10
2019-01-02T06:28:50.120Z,3.73
2019-01-02T06:31:20.767Z,3.90
2019-01-02T06:33:51.433Z,3.27
2019-01-02T06:36:22.427Z,4.63
2019-01-02T06:38:53.391Z,2.93
2019-01-02T06:41:27.516Z,5.90
2019-01-02T06:43:58.225Z,8.00
2019-01-02T06:46:29.033Z,26.73
2019-01-02T06:48:59.755Z,12.27
2019-01-02T06:51:30.378Z,16.53
2019-01-02T06:54:00.891Z,12.67
2019-01-02T06:56:31.524Z,5.33
2019-01-02T06:59:02.087Z,3.97
2019-01-02T07:01:33.039Z,3.07
2019-01-02T07:04:03.763Z,2.97
2019-01-02T07:06:34.529Z,4.00
2019-01-02T07:09:06.997Z,14.00
2019-01-02T07:11:37.610Z,4.23
2019-01-02T07:14:08.153Z,2.17
2019-01-02T07:16:38.756Z,5.00
2019-01-02T07:19:09.417Z,4.13
2019-01-02T07:21:39.761Z,4.40
2019-01-02T07:24:10.528Z,4.63
2019-01-02T07:26:41.411Z,4.33
2019-01-02T07:29:11.989Z,2.60
2019-01-02T07:31:45.185Z,2.47
2019-01-02T07:34:29.308Z,4.23
2019-01-02T07:37:36.021Z,2.90
2019-01-02T07:40:54.870Z,3.00
2019-01-02T07:44:09.514Z,2.47
2019-01-02T07:47:19.643Z,3.97
2019-01-02T07:50:04.293Z,2.90
2019-01-02T07:52:51.850Z,2.63
2019-01-02T07:55:47.938Z,3.20
2019-01-02T07:58:53.759Z,2.33
2019-01-02T08:02:01.536Z,3.77
2019-01-02T08:04:57.773Z,3.07
2019-01-02T08:07:53.867Z,6.13
2019-01-02T08:11:01.584Z,9.57
2019-01-02T08:14:09.351Z,6.40
2019-01-02T08:16:54.572Z,5.83
2019-01-02T08:19:50.058Z,5.77
2019-01-02T08:22:52.456Z,3.40
2019-01-02T08:25:49.109Z,2.50
2019-01-02T08:28:43.321Z,1.80
2019-01-02T08:31:39.697Z,2.20
2019-01-02T08:34:39.351Z,2.57
2019-01-02T08:37:32.102Z,2.43
2019-01-02T08:40:35.163Z,2.37
2019-01-02T08:43:41.752Z,2.10
2019-01-02T08:46:49.471Z,2.40
2019-01-02T08:49:57.228Z,2.33
2019-01-02T08:53:04.931Z,2.73
2019-01-02T08:56:12.621Z,3.83
2019-01-02T08:58:51.725Z,3.00
2019-01-02T09:01:47.993Z,2.90
2019-01-02T09:04:55.696Z,3.43
2019-01-02T09:08:03.484Z,4.00
2019-01-02T09:10:59.884Z,3.70
2019-01-02T09:13:53.580Z,4.37
2019-01-02T09:16:48.417Z,3.80
2019-01-02T09:19:49.251Z,4.70
2019-01-02T09:22:56.922Z,4.90
2019-01-02T09:26:04.611Z,5.30
2019-01-02T09:29:12.181Z,5.97
2019-01-02T09:32:19.906Z,5.10
2019-01-02T09:35:14.771Z,5.50
2019-01-02T09:38:22.506Z,5.10
2019-01-02T09:41:11.773Z,5.40
2019-01-02T09:44:09.745Z,4.40
2019-01-02T09:47:17.447Z,4.27
2019-01-02T09:50:14.545Z,3.10
2019-01-02T09:53:12.185Z,2.70
2019-01-02T09:56:19.773Z,2.87
2019-01-02T09:59:27.316Z,2.60
2019-01-02T10:02:21.058Z,2.13
2019-01-02T10:05:21.979Z,1.90
2019-01-02T10:08:29.551Z,1.63
2019-01-02T10:11:23.939Z,2.30
2019-01-02T10:14:31.630Z,2.77
2019-01-02T10:17:39.229Z,2.10
2019-01-02T10:20:46.769Z,2.30
2019-01-02T10:23:41.934Z,2.43
2019-01-02T10:26:35.869Z,2.97
2019-01-02T10:29:43.523Z,2.70
2019-01-02T10:32:51.198Z,2.90
2019-01-02T10:35:58.823Z,2.77
2019-01-02T10:39:06.500Z,3.43
2019-01-02T10:42:14.104Z,2.67
2019-01-02T10:45:10.606Z,2.57
2019-01-02T10:47:53.109Z,2.63
2019-01-02T10:51:00.732Z,2.57
2019-01-02T10:53:43.309Z,3.07
2019-01-02T10:56:43.244Z,3.13
2019-01-02T10:59:40.529Z,2.83
2019-01-02T11:02:48.085Z,3.13
2019-01-02T11:05:40.863Z,2.63
2019-01-02T11:08:20.599Z,2.23
2019-01-02T11:11:22.763Z,2.70
2019-01-02T11:14:27.283Z,1.63
2019-01-02T11:17:34.989Z,2.40
2019-01-02T11:20:28.032Z,1.93
2019-01-02T11:23:35.838Z,2.13
2019-01-02T11:26:40.335Z,2.33
2019-01-02T11:29:34.409Z,1.97
2019-01-02T11:32:36.408Z,2.43
2019-01-02T11:35:42.549Z,1.60
2019-01-02T11:38:38.596Z,2.53
2019-01-02T11:41:21.371Z,2.20
2019-01-02T11:44:29.133Z,1.87
2019-01-02T11:46:58.515Z,2.17
2019-01-02T11:49:28.014Z,2.33
2019-01-02T11:51:58.129Z,2.37
2019-01-02T11:54:27.537Z,2.40
2019-01-02T11:56:57.156Z,1.63
2019-01-02T11:59:26.933Z,2.33
2019-01-02T12:01:56.503Z,2.20
2019-01-02T12:04:26.112Z,2.20
2019-01-02T12:06:55.773Z,2.50
2019-01-02T12:09:25.963Z,2.40
2019-01-02T12:11:55.593Z,2.47
2019-01-02T12:14:25.009Z,2.73
2019-01-02T12:16:54.701Z,2.53
2019-01-02T12:19:24.230Z,2.40
2019-01-02T12:21:54.013Z,2.67
2019-01-02T12:24:23.727Z,2.33
2019-01-02T12:26:53.176Z,2.33
2019-01-02T12:29:22.419Z,2.67
2019-01-02T12:31:51.927Z,2.03
2019-01-02T12:34:21.635Z,1.70
2019-01-02T12:36:51.041Z,2.43
2019-01-02T12:39:20.649Z,1.97
2019-01-02T12:41:50.090Z,2.30
2019-01-02T12:44:19.930Z,2.20
2019-01-02T12:46:49.463Z,1.90
2019-01-02T12:49:18.962Z,2.10
2019-01-02T12:51:48.670Z,1.87
2019-01-02T12:54:18.263Z,1.97
2019-01-02T12:56:48.089Z,2.00
2019-01-02T12:59:25.753Z,2.30
2019-01-02T13:02:33.544Z,2.60
2019-01-02T13:05:37.693Z,1.97
2019-01-02T13:08:45.288Z,2.57
2019-01-02T13:11:27.484Z,2.20
2019-01-02T13:14:35.090Z,3.87
2019-01-02T13:17:42.182Z,2.10
2019-01-02T13:20:38.694Z,2.73
2019-01-02T13:23:25.296Z,2.50
2019-01-02T13:26:16.836Z,2.30
2019-01-02T13:29:09.682Z,1.80
2019-01-02T13:32:09.711Z,1.70
2019-01-02T13:35:17.352Z,2.93
2019-01-02T13:38:24.992Z,2.30
2019-01-02T13:41:32.561Z,1.73
2019-01-02T13:44:12.051Z,2.40
2019-01-02T13:47:05.899Z,2.30
2019-01-02T13:50:13.605Z,2.53
2019-01-02T13:52:43.121Z,1.67
2019-01-02T13:55:16.825Z,1.87
2019-01-02T13:57:46.207Z,1.80
2019-01-02T14:00:15.710Z,1.80
2019-01-02T14:02:45.213Z,2.83
2019-01-02T14:05:18.026Z,1.80
2019-01-02T14:07:47.610Z,1.13
2019-01-02T14:10:17.212Z,1.60
2019-01-02T14:12:46.709Z,1.87
2019-01-02T14:15:16.215Z,1.90
2019-01-02T14:17:45.705Z,2.30
2019-01-02T14:20:15.019Z,2.13
2019-01-02T14:22:44.382Z,4.00
2019-01-02T14:25:13.913Z,2.60
2019-01-02T14:27:43.423Z,2.33
2019-01-02T14:30:12.826Z,1.97
2019-01-02T14:32:42.245Z,1.90
2019-01-02T14:35:11.833Z,1.90
2019-01-02T14:37:41.342Z,2.30
2019-01-02T14:40:10.711Z,2.20
2019-01-02T14:42:40.102Z,2.17
2019-01-02T14:45:09.643Z,2.07
2019-01-02T14:47:38.908Z,1.80
2019-01-02T14:50:08.854Z,1.80
2019-01-02T14:52:43.219Z,1.80
2019-01-02T14:57:24.952Z,2.00
2019-01-02T14:59:55.613Z,1.80
2019-01-02T15:02:26.097Z,1.77
2019-01-02T15:04:56.592Z,2.03
2019-01-02T15:07:27.072Z,2.30
2019-01-02T15:09:57.484Z,2.57
2019-01-02T15:12:27.837Z,2.90
2019-01-02T15:14:58.197Z,2.00
2019-01-02T15:17:28.672Z,1.80
2019-01-02T15:19:59.173Z,2.50
2019-01-02T15:22:29.596Z,2.07
2019-01-02T15:25:00.287Z,1.67
2019-01-02T15:27:30.786Z,1.63
2019-01-02T15:30:01.788Z,2.07
2019-01-02T15:32:32.530Z,2.60
2019-01-02T15:35:06.805Z,2.00
2019-01-02T15:37:37.407Z,2.30
2019-01-02T15:40:11.224Z,2.60
2019-01-02T15:42:41.878Z,1.40
2019-01-02T15:45:12.441Z,1.67
2019-01-02T15:47:43.632Z,1.60
2019-01-02T15:50:14.431Z,1.90
2019-01-02T15:52:45.056Z,1.60
2019-01-02T15:55:15.998Z,1.63
2019-01-02T15:57:46.882Z,1.43
2019-01-02T16:00:18.839Z,1.40
2019-01-02T16:02:49.504Z,2.00
2019-01-02T16:05:20.502Z,3.60
2019-01-02T16:07:51.037Z,2.37
2019-01-02T16:10:21.637Z,3.20
2019-01-02T16:12:52.531Z,2.73
2019-01-02T16:15:23.340Z,4.83
2019-01-02T16:17:54.064Z,4.23
2019-01-02T16:20:24.847Z,4.00
2019-01-02T16:22:55.418Z,4.87
2019-01-02T16:25:26.858Z,2.13
2019-01-02T16:27:57.467Z,2.73
2019-01-02T16:30:27.987Z,2.23
2019-01-02T16:32:58.940Z,2.50
2019-01-02T16:35:29.352Z,4.60
2019-01-02T16:38:00.519Z,2.57
2019-01-02T16:40:31.218Z,2.20
2019-01-02T16:43:01.748Z,2.80
2019-01-02T16:45:32.590Z,1.80
2019-01-02T16:48:03.543Z,1.50
2019-01-02T16:50:34.122Z,1.50
2019-01-02T16:53:04.878Z,2.00
2019-01-02T16:55:35.496Z,2.03
2019-01-02T16:58:06.180Z,1.80
2019-01-02T17:00:36.820Z,1.23
2019-01-02T17:03:07.475Z,1.67
2019-01-02T17:05:38.516Z,1.60
2019-01-02T17:08:09.291Z,1.53
2019-01-02T17:10:39.895Z,1.60
2019-01-02T17:13:10.487Z,2.20
2019-01-02T17:15:41.018Z,1.87
2019-01-02T17:18:11.758Z,2.07
2019-01-02T17:20:42.499Z,2.50
2019-01-02T17:23:13.008Z,2.17
2019-01-02T17:25:43.666Z,2.60
2019-01-02T17:28:14.424Z,2.03
2019-01-02T17:30:44.997Z,2.30
2019-01-02T17:33:15.668Z,2.40
2019-01-02T17:35:46.197Z,2.13
2019-01-02T17:38:18.133Z,2.27
2019-01-02T17:40:48.701Z,3.20
2019-01-02T17:43:19.339Z,2.00
2019-01-02T17:45:50.088Z,2.33
2019-01-02T17:48:20.715Z,1.80
2019-01-02T17:50:51.270Z,1.83
2019-01-02T17:53:22.032Z,1.77
2019-01-02T17:55:53.124Z,1.80
2019-01-02T17:58:24.911Z,2.20
2019-01-02T18:01:00.631Z,1.80
2019-01-02T18:03:31.247Z,1.40
2019-01-02T18:06:02.225Z,1.57
2019-01-02T18:08:32.799Z,1.77
2019-01-02T18:11:04.679Z,1.70
2019-01-02T18:13:35.278Z,2.23
2019-01-02T18:16:06.079Z,1.50
2019-01-02T18:18:36.936Z,2.13
2019-01-02T18:21:07.677Z,1.60
2019-01-02T18:23:39.826Z,1.60
2019-01-02T18:26:12.221Z,1.57
2019-01-02T18:28:43.078Z,1.50
2019-01-02T18:31:15.512Z,1.60
2019-01-02T18:33:46.121Z,1.73
2019-01-02T18:36:16.910Z,1.67
2019-01-02T18:38:50.718Z,1.33
2019-01-02T18:41:21.477Z,1.80
2019-01-02T18:43:55.305Z,1.43
2019-01-02T18:46:29.087Z,2.30
2019-01-02T18:49:00.323Z,2.40
2019-01-02T18:51:31.782Z,2.20
2019-01-02T18:54:05.356Z,2.50
2019-01-02T18:56:40.660Z,2.60
2019-01-02T18:59:12.558Z,2.40
2019-01-02T19:01:43.264Z,2.60
2019-01-02T19:04:13.887Z,3.13
2019-01-02T19:06:45.022Z,3.60
2019-01-02T19:09:16.524Z,4.43
2019-01-02T19:11:48.571Z,3.10
2019-01-02T19:14:19.234Z,3.67
2019-01-02T19:16:49.920Z,2.37
2019-01-02T19:19:25.447Z,2.77
2019-01-02T19:21:59.649Z,2.87
2019-01-02T19:24:33.267Z,2.73
2019-01-02T19:27:05.584Z,2.73
2019-01-02T19:29:41.607Z,2.90
2019-01-02T19:32:12.284Z,2.53
2019-01-02T19:34:43.429Z,3.37
2019-01-02T19:37:14.170Z,2.63
2019-01-02T19:39:44.943Z,2.70
2019-01-02T19:42:17.469Z,2.27
2019-01-02T19:44:50.531Z,2.87
2019-01-02T19:47:24.245Z,2.80
2019-01-02T19:49:57.067Z,2.43
2019-01-02T19:52:28.978Z,3.03
2019-01-02T19:54:59.669Z,2.50
2019-01-02T19:57:34.774Z,2.23
2019-01-02T20:00:08.918Z,2.90
2019-01-02T20:02:39.544Z,3.30
2019-01-02T20:05:15.982Z,2.00
2019-01-02T20:07:50.666Z,3.13
2019-01-02T20:10:31.653Z,3.50
2019-01-02T20:13:13.277Z,2.27
2019-01-02T20:15:44.100Z,2.10
2019-01-02T20:18:17.319Z,2.60
2019-01-02T20:20:49.536Z,3.60
2019-01-02T20:23:26.854Z,3.00
2019-01-02T20:26:05.280Z,3.23
2019-01-02T20:28:37.081Z,2.57
2019-01-02T20:31:18.650Z,2.20
2019-01-02T20:33:52.409Z,2.00
2019-01-02T20:36:26.064Z,3.20
2019-01-02T20:39:00.605Z,2.40
2019-01-02T20:41:42.882Z,3.00
2019-01-02T20:44:13.498Z,1.73
2019-01-02T20:46:45.430Z,2.33
2019-01-02T20:49:17.169Z,2.53
2019-01-02T20:51:50.145Z,2.10
2019-01-02T20:54:24.558Z,2.40
2019-01-02T20:56:57.564Z,2.47
2019-01-02T20:59:40.422Z,2.23
2019-01-02T21:02:11.727Z,2.20
2019-01-02T21:04:42.619Z,2.30
2019-01-02T21:07:15.529Z,2.17
2019-01-02T21:09:48.250Z,2.13
2019-01-02T21:12:23.071Z,2.83
2019-01-02T21:14:56.301Z,2.27
2019-01-02T21:17:29.554Z,2.37
2019-01-02T21:20:02.719Z,1.90
2019-01-02T21:22:33.430Z,2.70
2019-01-02T21:25:09.933Z,3.00
2019-01-02T21:27:40.496Z,2.40
2019-01-02T21:30:13.172Z,2.43
2019-01-02T21:32:47.313Z,2.80
2019-01-02T21:35:19.218Z,2.40
2019-01-02T21:37:51.173Z,3.07
2019-01-02T21:40:22.320Z,2.93
2019-01-02T21:42:54.286Z,2.30
2019-01-02T21:45:24.963Z,3.10
2019-01-02T21:47:57.440Z,2.77
2019-01-02T21:50:28.029Z,3.20
2019-01-02T21:52:59.205Z,2.67
2019-01-02T21:55:29.865Z,2.53
2019-01-02T21:58:01.907Z,3.07
2019-01-02T22:00:32.687Z,2.73
2019-01-02T22:03:03.777Z,2.67
2019-01-02T22:05:34.528Z,3.00
2019-01-02T22:08:05.244Z,3.30
2019-01-02T22:10:36.956Z,2.27
2019-01-02T22:13:07.726Z,3.00
2019-01-02T22:15:38.468Z,4.63
2019-01-02T22:18:09.678Z,2.17
2019-01-02T22:20:40.582Z,2.50
2019-01-02T22:23:11.279Z,3.30
2019-01-02T22:25:41.894Z,2.80
2019-01-02T22:28:12.520Z,2.27
2019-01-02T22:30:43.540Z,2.57
2019-01-02T22:33:14.158Z,2.87
2019-01-02T22:35:44.670Z,2.90
2019-01-02T22:38:15.230Z,2.07
2019-01-02T22:40:45.687Z,3.50
2019-01-02T22:43:16.428Z,2.20
2019-01-02T22:45:47.016Z,1.80
2019-01-02T22:48:17.409Z,2.10
2019-01-02T22:50:47.899Z,2.77
2019-01-02T22:53:18.353Z,2.60
2019-01-02T22:55:48.828Z,2.03
2019-01-02T22:58:19.525Z,3.13
2019-01-02T23:01:09.478Z,2.97
2019-01-02T23:03:58.878Z,3.13
2019-01-02T23:06:48.280Z,2.50
2019-01-02T23:09:37.637Z,2.20
2019-01-02T23:12:27.002Z,2.47
2019-01-02T23:15:16.515Z,1.90
2019-01-02T23:18:05.948Z,2.37
2019-01-02T23:20:56.003Z,1.97
2019-01-02T23:23:45.469Z,2.40
2019-01-02T23:26:34.986Z,2.27
2019-01-02T23:29:24.384Z,1.70
2019-01-02T23:32:13.943Z,2.57
2019-01-02T23:35:03.347Z,1.80
2019-01-02T23:37:52.908Z,1.87
2019-01-02T23:40:42.488Z,1.83
2019-01-02T23:43:31.878Z,2.47
2019-01-02T23:46:21.408Z,2.23
2019-01-02T23:49:10.949Z,2.57
2019-01-02T23:52:00.498Z,1.37
2019-01-02T23:54:51.047Z,1.60
2019-01-02T23:57:40.552Z,2.00
